createdAt,value
2022-08-14T00:00:54.490Z,100.00
2022-08-14T00:03:29.474Z,100.00
2022-08-14T00:06:00.116Z,100.00
2022-08-14T00:08:43.555Z,100.00
2022-08-14T00:11:12.860Z,100.00
2022-08-14T00:13:40.581Z,100.00
2022-08-14T00:16:44.197Z,100.00
2022-08-14T00:23:34.682Z,100.00
2022-08-14T00:26:06.474Z,100.00
2022-08-14T00:28:37.011Z,100.00
2022-08-14T00:31:06.713Z,100.00
2022-08-14T00:33:51.778Z,100.00
2022-08-14T00:36:36.954Z,100.00
2022-08-14T00:44:35.788Z,100.00
2022-08-14T00:47:08.051Z,100.00
2022-08-14T00:49:43.044Z,100.00
2022-08-14T00:52:13.828Z,100.00
2022-08-14T00:54:42.708Z,100.00
2022-08-14T00:57:10.608Z,100.00
2022-08-14T00:59:39.172Z,100.00
2022-08-14T01:07:07.534Z,100.00
2022-08-14T01:09:37.694Z,100.00
2022-08-14T01:12:07.983Z,100.00
2022-08-14T01:14:35.754Z,100.00
2022-08-14T01:17:03.920Z,100.00
2022-08-14T01:19:49.563Z,100.00
2022-08-14T01:22:18.990Z,100.00
2022-08-14T01:30:01.222Z,100.00
2022-08-14T01:32:37.347Z,100.00
2022-08-14T01:35:19.270Z,100.00
2022-08-14T01:37:57.040Z,100.00
2022-08-14T01:40:33.206Z,100.00
2022-08-14T01:43:08.808Z,100.00
2022-08-14T01:45:41.031Z,100.00
2022-08-14T01:53:19.130Z,100.00
2022-08-14T01:55:49.016Z,100.00
2022-08-14T01:58:20.193Z,100.00
2022-08-14T02:00:58.430Z,100.00
2022-08-14T02:03:30.155Z,100.00
2022-08-14T02:05:59.227Z,100.00
2022-08-14T02:08:34.784Z,100.00
2022-08-14T02:16:22.584Z,100.00
2022-08-14T02:18:50.789Z,100.00
2022-08-14T02:21:23.164Z,100.00
2022-08-14T02:23:53.885Z,100.00
2022-08-14T02:26:29.837Z,100.00
2022-08-14T02:29:03.545Z,100.00
2022-08-14T02:34:22.427Z,100.00
2022-08-14T02:37:04.411Z,100.00
2022-08-14T02:39:37.258Z,100.00
2022-08-14T02:42:07.392Z,100.00
2022-08-14T02:44:48.791Z,100.00
2022-08-14T02:47:19.273Z,100.00
2022-08-14T02:49:50.702Z,100.00
2022-08-14T02:57:39.816Z,100.00
2022-08-14T03:00:12.568Z,100.00
2022-08-14T03:02:56.819Z,100.00
2022-08-14T03:05:29.903Z,100.00
2022-08-14T03:08:09.125Z,100.00
2022-08-14T03:10:41.663Z,100.00
2022-08-14T03:15:47.403Z,100.00
2022-08-14T03:18:18.598Z,100.00
2022-08-14T03:20:46.416Z,100.00
2022-08-14T03:23:14.039Z,100.00
2022-08-14T03:25:44.926Z,100.00
2022-08-14T03:28:14.880Z,100.00
2022-08-14T03:30:59.889Z,100.00
2022-08-14T03:37:51.008Z,100.00
2022-08-14T03:39:12.573Z,100.00
2022-08-14T03:41:43.171Z,100.00
2022-08-14T03:45:20.164Z,100.00
2022-08-14T03:46:58.372Z,100.00
2022-08-14T03:49:29.207Z,100.00
2022-08-14T03:52:00.819Z,100.00
2022-08-14T03:59:39.925Z,100.00
2022-08-14T04:02:31.876Z,100.00
2022-08-14T04:04:54.902Z,100.00
2022-08-14T04:07:22.424Z,100.00
2022-08-14T04:09:50.086Z,100.00
2022-08-14T04:12:26.362Z,100.00
2022-08-14T04:14:55.053Z,100.00
2022-08-14T04:22:21.982Z,100.00
2022-08-14T04:24:50.126Z,100.00
2022-08-14T04:27:18.623Z,100.00
2022-08-14T04:29:46.266Z,100.00
2022-08-14T04:32:57.795Z,100.00
2022-08-14T04:35:07.689Z,100.00
2022-08-14T04:37:57.685Z,100.00
2022-08-14T04:45:29.766Z,100.00
2022-08-14T04:48:13.648Z,100.00
2022-08-14T04:51:02.043Z,100.00
2022-08-14T04:53:35.418Z,100.00
2022-08-14T04:56:30.174Z,100.00
2022-08-14T04:58:57.120Z,100.00
2022-08-14T05:06:37.394Z,100.00
2022-08-14T05:09:07.300Z,100.00
2022-08-14T05:11:39.282Z,100.00
2022-08-14T05:14:16.972Z,100.00
2022-08-14T05:17:01.659Z,100.00
2022-08-14T05:19:31.995Z,100.00
2022-08-14T05:24:40.165Z,100.00
2022-08-14T05:27:09.147Z,100.00
2022-08-14T05:29:36.670Z,100.00
2022-08-14T05:32:06.978Z,100.00
2022-08-14T05:34:34.568Z,100.00
2022-08-14T05:37:03.472Z,100.00
2022-08-14T05:39:31.829Z,100.00
2022-08-14T05:47:04.298Z,100.00
2022-08-14T05:49:33.222Z,100.00
2022-08-14T05:52:02.515Z,100.00
2022-08-14T05:54:35.883Z,100.00
2022-08-14T05:57:04.882Z,100.00
2022-08-14T05:59:39.355Z,100.00
2022-08-14T06:04:51.170Z,100.00
2022-08-14T06:07:18.805Z,100.00
2022-08-14T06:09:52.156Z,100.00
2022-08-14T06:12:31.619Z,100.00
2022-08-14T06:15:10.037Z,100.00
2022-08-14T06:17:46.306Z,100.00
2022-08-14T06:22:52.255Z,100.00
2022-08-14T06:25:20.408Z,100.00
2022-08-14T06:27:49.923Z,100.00
2022-08-14T06:30:19.627Z,100.00
2022-08-14T06:32:48.762Z,100.00
2022-08-14T06:35:22.468Z,100.00
2022-08-14T06:37:53.606Z,100.00
2022-08-14T06:44:47.984Z,100.00
2022-08-14T06:47:15.551Z,100.00
2022-08-14T06:49:48.526Z,100.00
2022-08-14T06:52:23.763Z,100.00
2022-08-14T06:54:52.644Z,100.00
2022-08-14T06:57:21.552Z,100.00
2022-08-14T06:59:50.669Z,100.00
2022-08-14T07:05:22.908Z,100.00
2022-08-14T07:07:51.964Z,100.00
2022-08-14T07:10:21.779Z,100.00
2022-08-14T07:12:56.389Z,100.00
2022-08-14T07:15:33.664Z,100.00
2022-08-14T07:18:03.180Z,100.00
2022-08-14T07:25:35.096Z,100.00
2022-08-14T07:28:21.257Z,100.00
2022-08-14T07:30:51.000Z,100.00
2022-08-14T07:33:24.915Z,100.00
2022-08-14T07:36:01.053Z,100.00
2022-08-14T07:38:33.590Z,100.00
2022-08-14T07:43:44.006Z,100.00
2022-08-14T07:46:21.152Z,100.00
2022-08-14T07:48:56.760Z,100.00
2022-08-14T07:51:24.450Z,100.00
2022-08-14T07:53:56.838Z,100.00
2022-08-14T07:56:48.282Z,100.00
2022-08-14T07:59:20.600Z,100.00
2022-08-14T08:06:23.402Z,100.00
2022-08-14T08:09:01.014Z,100.00
2022-08-14T08:11:34.897Z,100.00
2022-08-14T08:14:06.981Z,100.00
2022-08-14T08:16:45.143Z,100.00
2022-08-14T08:19:18.355Z,100.00
2022-08-14T08:24:41.119Z,100.00
2022-08-14T08:27:16.679Z,100.00
2022-08-14T08:29:50.751Z,100.00
2022-08-14T08:32:19.478Z,100.00
2022-08-14T08:34:47.935Z,100.00
2022-08-14T08:37:16.948Z,100.00
2022-08-14T08:40:02.951Z,100.00
2022-08-14T08:47:40.400Z,100.00
2022-08-14T08:50:23.033Z,100.00
2022-08-14T08:53:02.106Z,100.00
2022-08-14T08:55:34.089Z,100.00
2022-08-14T08:58:05.383Z,100.00
2022-08-14T09:00:41.763Z,100.00
2022-08-14T09:08:30.979Z,100.00
2022-08-14T09:11:01.969Z,100.00
2022-08-14T09:13:30.932Z,100.00
2022-08-14T09:16:01.487Z,100.00
2022-08-14T09:18:47.154Z,100.00
2022-08-14T09:21:16.136Z,100.00
2022-08-14T09:26:28.788Z,100.00
2022-08-14T09:28:59.812Z,100.00
2022-08-14T09:31:43.090Z,100.00
2022-08-14T09:34:29.641Z,100.00
2022-08-14T09:37:17.261Z,100.00
2022-08-14T09:39:57.656Z,100.00
2022-08-14T09:45:22.256Z,100.00
2022-08-14T09:47:52.523Z,100.00
2022-08-14T09:50:26.864Z,100.00
2022-08-14T09:52:58.067Z,100.00
2022-08-14T09:55:28.076Z,100.00
2022-08-14T09:58:09.610Z,100.00
2022-08-14T10:00:50.345Z,100.00
2022-08-14T10:06:17.157Z,100.00
2022-08-14T10:08:50.911Z,100.00
2022-08-14T10:11:23.614Z,100.00
2022-08-14T10:13:54.069Z,100.00
2022-08-14T10:16:32.067Z,100.00
2022-08-14T10:19:07.229Z,100.00
2022-08-14T10:21:38.774Z,100.00
2022-08-14T10:26:58.743Z,100.00
2022-08-14T10:29:33.278Z,100.00
2022-08-14T10:32:02.843Z,100.00
2022-08-14T10:34:47.200Z,100.00
2022-08-14T10:37:23.013Z,100.00
2022-08-14T10:40:05.286Z,100.00
2022-08-14T10:45:34.048Z,100.00
2022-08-14T10:48:24.123Z,100.00
2022-08-14T10:51:04.855Z,100.00
2022-08-14T10:53:39.858Z,100.00
2022-08-14T10:56:22.025Z,100.00
2022-08-14T10:59:01.964Z,100.00
2022-08-14T11:04:30.646Z,100.00
2022-08-14T11:06:59.343Z,100.00
2022-08-14T11:09:32.099Z,100.00
2022-08-14T11:12:34.846Z,100.00
2022-08-14T11:15:01.820Z,100.00
2022-08-14T11:17:32.888Z,99.07
2022-08-14T11:25:44.306Z,97.58
2022-08-14T11:28:47.380Z,96.77
2022-08-14T11:31:14.022Z,96.46
2022-08-14T11:33:42.049Z,94.50
2022-08-14T11:36:18.434Z,96.93
2022-08-14T11:38:46.947Z,94.99
2022-08-14T11:41:17.696Z,94.07
2022-08-14T11:46:37.712Z,92.48
2022-08-14T11:49:06.574Z,91.68
2022-08-14T11:51:54.148Z,90.95
2022-08-14T11:54:34.725Z,91.59
2022-08-14T11:57:04.433Z,94.93
2022-08-14T11:59:33.616Z,95.80
2022-08-14T12:06:29.267Z,95.64
2022-08-14T12:09:00.683Z,98.35
2022-08-14T12:11:43.579Z,97.29
2022-08-14T12:14:13.432Z,95.08
2022-08-14T12:17:00.784Z,94.81
2022-08-14T12:19:33.640Z,94.26
2022-08-14T12:27:52.745Z,92.96
2022-08-14T12:30:29.135Z,90.23
2022-08-14T12:33:04.966Z,88.79
2022-08-14T12:35:39.726Z,90.19
2022-08-14T12:38:08.177Z,91.57
2022-08-14T12:40:46.559Z,95.17
2022-08-14T12:48:21.423Z,100.00
2022-08-14T12:50:59.102Z,100.00
2022-08-14T12:53:38.463Z,100.00
2022-08-14T12:56:21.490Z,100.00
2022-08-14T12:58:56.722Z,100.00
2022-08-14T13:01:26.776Z,100.00
2022-08-14T13:09:36.344Z,100.00
2022-08-14T13:12:32.556Z,100.00
2022-08-14T13:14:57.871Z,100.00
2022-08-14T13:17:26.948Z,100.00
2022-08-14T13:19:57.340Z,100.00
2022-08-14T13:22:32.083Z,100.00
2022-08-14T13:30:23.332Z,100.00
2022-08-14T13:32:52.593Z,100.00
2022-08-14T13:35:20.900Z,100.00
2022-08-14T13:37:52.481Z,100.00
2022-08-14T13:40:25.995Z,98.30
2022-08-14T13:42:56.804Z,92.22
2022-08-14T13:48:04.661Z,86.87
2022-08-14T13:50:34.379Z,84.58
2022-08-14T13:53:03.797Z,84.00
2022-08-14T13:55:32.424Z,82.63
2022-08-14T13:58:03.426Z,78.96
2022-08-14T14:00:35.266Z,78.59
2022-08-14T14:03:05.663Z,74.86
2022-08-14T14:10:35.803Z,71.04
2022-08-14T14:13:07.257Z,69.92
2022-08-14T14:15:48.559Z,72.37
2022-08-14T14:18:34.407Z,76.33
2022-08-14T14:21:02.896Z,78.08
2022-08-14T14:23:30.838Z,76.24
2022-08-14T14:32:32.062Z,87.04
2022-08-14T14:35:03.640Z,87.19
2022-08-14T14:37:31.599Z,88.03
2022-08-14T14:40:54.104Z,89.17
2022-08-14T14:42:51.828Z,90.94
2022-08-14T14:45:23.496Z,92.19
2022-08-14T14:47:59.119Z,90.48
2022-08-14T14:54:50.911Z,91.79
2022-08-14T14:57:19.836Z,92.73
2022-08-14T14:59:47.783Z,92.53
2022-08-14T15:02:33.191Z,92.65
2022-08-14T15:05:01.037Z,94.10
2022-08-14T15:07:29.870Z,96.07
2022-08-14T15:09:59.051Z,98.36
2022-08-14T15:16:46.667Z,96.00
2022-08-14T15:19:14.794Z,94.31
2022-08-14T15:21:42.778Z,94.11
2022-08-14T15:24:10.879Z,95.29
2022-08-14T15:26:42.478Z,95.27
2022-08-14T15:29:14.227Z,95.45
2022-08-14T15:31:43.567Z,96.54
2022-08-14T15:39:13.590Z,97.98
2022-08-14T15:41:42.856Z,100.00
2022-08-14T15:44:18.881Z,100.00
2022-08-14T15:46:53.424Z,100.00
2022-08-14T15:49:21.055Z,100.00
2022-08-14T15:51:50.999Z,100.00
2022-08-14T15:54:22.068Z,100.00
2022-08-14T16:01:55.169Z,100.00
2022-08-14T16:04:23.808Z,100.00
2022-08-14T16:06:54.809Z,100.00
2022-08-14T16:09:23.401Z,100.00
2022-08-14T16:11:53.594Z,100.00
2022-08-14T16:14:24.237Z,100.00
2022-08-14T16:17:00.330Z,100.00
2022-08-14T16:23:10.072Z,100.00
2022-08-14T16:25:03.949Z,100.00
2022-08-14T16:27:37.207Z,100.00
2022-08-14T16:30:10.963Z,100.00
2022-08-14T16:32:54.879Z,100.00
2022-08-14T16:35:26.507Z,100.00
2022-08-14T16:43:16.144Z,100.00
2022-08-14T16:45:44.303Z,100.00
2022-08-14T16:48:55.395Z,100.00
2022-08-14T16:51:01.167Z,100.00
2022-08-14T16:53:36.369Z,100.00
2022-08-14T16:56:22.886Z,100.00
2022-08-14T17:04:53.564Z,100.00
2022-08-14T17:07:21.809Z,100.00
2022-08-14T17:09:52.734Z,100.00
2022-08-14T17:12:29.054Z,100.00
2022-08-14T17:15:09.833Z,100.00
2022-08-14T17:17:50.014Z,100.00
2022-08-14T17:26:01.196Z,100.00
2022-08-14T17:28:51.944Z,100.00
2022-08-14T17:31:17.728Z,100.00
2022-08-14T17:33:52.408Z,100.00
2022-08-14T17:36:22.989Z,100.00
2022-08-14T17:39:06.481Z,100.00
2022-08-14T17:45:44.955Z,100.00
2022-08-14T17:49:15.868Z,100.00
2022-08-14T17:51:23.660Z,100.00
2022-08-14T17:54:02.668Z,100.00
2022-08-14T17:56:33.186Z,100.00
2022-08-14T17:59:05.039Z,100.00
2022-08-14T18:06:38.176Z,100.00
2022-08-14T18:09:24.846Z,100.00
2022-08-14T18:11:54.376Z,100.00
2022-08-14T18:14:33.211Z,100.00
2022-08-14T18:17:11.611Z,100.00
2022-08-14T18:19:41.490Z,100.00
2022-08-14T18:27:16.046Z,100.00
2022-08-14T18:29:54.850Z,100.00
2022-08-14T18:32:47.191Z,100.00
2022-08-14T18:35:17.088Z,100.00
2022-08-14T18:37:56.059Z,100.00
2022-08-14T18:40:35.137Z,100.00
2022-08-14T18:48:33.254Z,100.00
2022-08-14T18:51:26.378Z,100.00
2022-08-14T18:54:29.926Z,100.00
2022-08-14T18:57:03.503Z,100.00
2022-08-14T18:59:36.254Z,100.00
2022-08-14T19:02:43.458Z,100.00
2022-08-14T19:09:57.929Z,100.00
2022-08-14T19:13:04.938Z,100.00
2022-08-14T19:15:37.137Z,100.00
2022-08-14T19:18:26.660Z,100.00
2022-08-14T19:20:58.375Z,100.00
2022-08-14T19:23:42.059Z,100.00
2022-08-14T19:31:42.543Z,100.00
2022-08-14T19:34:29.617Z,100.00
2022-08-14T19:37:05.712Z,100.00
2022-08-14T19:39:48.919Z,100.00
2022-08-14T19:42:28.590Z,100.00
2022-08-14T19:44:58.380Z,100.00
2022-08-14T19:50:31.022Z,100.00
2022-08-14T19:53:11.040Z,100.00
2022-08-14T19:55:45.549Z,100.00
2022-08-14T19:58:13.627Z,100.00
2022-08-14T20:00:51.840Z,100.00
2022-08-14T20:03:23.428Z,100.00
2022-08-14T20:11:58.497Z,100.00
2022-08-14T20:14:20.654Z,100.00
2022-08-14T20:16:54.294Z,100.00
2022-08-14T20:19:24.637Z,100.00
2022-08-14T20:22:35.635Z,100.00
2022-08-14T20:24:47.133Z,100.00
2022-08-14T20:32:22.436Z,100.00
2022-08-14T20:34:54.674Z,100.00
2022-08-14T20:37:22.825Z,100.00
2022-08-14T20:39:54.820Z,100.00
2022-08-14T20:42:43.865Z,100.00
2022-08-14T20:45:21.397Z,100.00
2022-08-14T20:52:18.992Z,100.00
2022-08-14T20:54:51.009Z,100.00
2022-08-14T20:57:20.039Z,100.00
2022-08-14T20:59:51.780Z,100.00
2022-08-14T21:02:38.408Z,100.00
2022-08-14T21:05:17.202Z,100.00
2022-08-14T21:10:34.055Z,100.00
2022-08-14T21:13:26.704Z,100.00
2022-08-14T21:15:58.002Z,100.00
2022-08-14T21:18:28.640Z,100.00
2022-08-14T21:20:58.443Z,100.00
2022-08-14T21:23:32.591Z,100.00
2022-08-14T21:28:55.914Z,100.00
2022-08-14T21:31:23.419Z,100.00
2022-08-14T21:33:56.317Z,100.00
2022-08-14T21:36:24.784Z,100.00
2022-08-14T21:38:58.864Z,100.00
2022-08-14T21:41:41.842Z,100.00
2022-08-14T21:47:07.513Z,100.00
2022-08-14T21:49:38.324Z,100.00
2022-08-14T21:52:50.951Z,100.00
2022-08-14T21:54:59.796Z,100.00
2022-08-14T21:57:56.068Z,100.00
2022-08-14T22:00:35.870Z,100.00
2022-08-14T22:08:14.045Z,100.00
2022-08-14T22:10:46.339Z,100.00
2022-08-14T22:13:14.788Z,100.00
2022-08-14T22:15:50.012Z,100.00
2022-08-14T22:18:20.490Z,100.00
2022-08-14T22:20:53.637Z,100.00
2022-08-14T22:23:23.630Z,100.00
2022-08-14T22:30:54.635Z,100.00
2022-08-14T22:33:26.036Z,100.00
2022-08-14T22:35:56.300Z,100.00
2022-08-14T22:38:37.740Z,100.00
2022-08-14T22:41:25.582Z,100.00
2022-08-14T22:43:59.270Z,100.00
2022-08-14T22:46:28.440Z,100.00
2022-08-14T22:53:32.112Z,100.00
2022-08-14T22:55:59.603Z,100.00
2022-08-14T22:58:30.406Z,100.00
2022-08-14T23:01:00.539Z,100.00
2022-08-14T23:03:28.922Z,100.00
2022-08-14T23:05:57.239Z,100.00
2022-08-14T23:08:56.797Z,100.00
2022-08-14T23:16:20.568Z,100.00
2022-08-14T23:18:54.100Z,100.00
2022-08-14T23:21:24.651Z,100.00
2022-08-14T23:23:54.962Z,100.00
2022-08-14T23:26:49.301Z,100.00
2022-08-14T23:29:12.475Z,100.00
2022-08-14T23:31:41.154Z,100.00
2022-08-14T23:39:19.333Z,100.00
2022-08-14T23:41:52.636Z,100.00
2022-08-14T23:44:22.517Z,100.00
2022-08-14T23:46:52.679Z,100.00
2022-08-14T23:49:24.355Z,100.00
2022-08-14T23:51:59.698Z,100.00
2022-08-14T23:54:48.694Z,100.00
2022-08-14T23:59:56.208Z,100.00
